Time;durP1;ratioP1;P1;durP2;ratioP2;P2;SDS_P1;SDS_P2;PMS_P1;PMS_P2;Temp;Humidity;BMP_temperature;BMP_pressure;BME280_temperature;BME280_humidity;BME280_pressure;Samples;Min_cycle;Max_cycle;Signal;HPM_P1;HPM_P2
2023/03/28 00:01:24;;;;;;;8.83;8.53;;;;;;;2.06;98.42;91691.28;5068724;28;20228;-68
2023/03/28 00:03:51;;;;;;;10.43;10.03;;;;;;;2.15;99.07;91715.53;5068673;28;20212;-68
2023/03/28 00:06:17;;;;;;;9.30;8.90;;;;;;;2.15;97.46;91719.91;5068425;28;20281;-67
2023/03/28 00:08:44;;;;;;;10.27;9.87;;;;;;;2.05;95.37;91725.00;5068816;28;20197;-68
2023/03/28 00:11:28;;;;;;;9.77;9.47;;;;;;;2.03;92.52;91727.03;5068579;28;20535;-68
2023/03/28 00:14:02;;;;;;;9.90;9.47;;;;;;;1.89;94.96;91713.03;5068253;28;20199;-68
2023/03/28 00:16:35;;;;;;;9.47;9.10;;;;;;;1.84;96.69;91749.81;5068259;28;20229;-68
2023/03/28 00:19:05;;;;;;;8.57;8.17;;;;;;;1.79;95.47;91751.59;5068161;28;20177;-68
2023/03/28 00:21:33;;;;;;;10.13;9.73;;;;;;;1.75;97.55;91758.22;5066239;28;20248;-68
2023/03/28 00:24:01;;;;;;;9.63;9.33;;;;;;;1.57;97.05;91755.00;5068656;28;20209;-69
2023/03/28 00:26:31;;;;;;;10.57;10.17;;;;;;;1.58;97.34;91763.50;5068515;28;20229;-68
2023/03/28 00:28:57;;;;;;;11.43;11.03;;;;;;;1.40;97.28;91764.63;5068243;28;20220;-68
2023/03/28 00:31:24;;;;;;;10.17;9.67;;;;;;;1.53;98.13;91776.31;5068593;28;20225;-67
2023/03/28 00:33:51;;;;;;;9.30;8.90;;;;;;;1.56;97.71;91784.34;5067629;28;20201;-72
2023/03/28 00:36:21;;;;;;;11.53;11.00;;;;;;;1.57;97.65;91772.25;5068560;28;20221;-69
2023/03/28 00:38:48;;;;;;;9.57;9.20;;;;;;;1.56;97.04;91781.75;5068443;28;20182;-69
2023/03/28 00:41:17;;;;;;;12.90;12.27;;;;;;;1.39;98.77;91767.44;5068689;28;20271;-69
2023/03/28 00:43:44;;;;;;;9.60;9.20;;;;;;;1.44;99.68;91776.00;5068898;28;20225;-69
2023/03/28 00:46:48;;;;;;;9.60;9.07;;;;;;;1.37;98.75;91762.56;5067965;28;20232;-69
2023/03/28 00:49:23;;;;;;;9.90;9.50;;;;;;;1.39;99.15;91788.81;5025989;28;20209;-70
2023/03/28 00:51:57;;;;;;;10.80;10.37;;;;;;;1.41;97.70;91794.50;5042607;28;20222;-69
2023/03/28 00:54:27;;;;;;;10.03;9.63;;;;;;;1.42;98.38;91797.81;5050959;28;20216;-70
2023/03/28 00:56:55;;;;;;;10.77;10.30;;;;;;;1.39;94.62;91804.22;5100659;28;20178;-70
2023/03/28 00:59:25;;;;;;;9.80;9.40;;;;;;;1.30;94.94;91790.28;5068862;28;20193;-68
2023/03/28 01:01:54;;;;;;;12.80;12.20;;;;;;;1.15;96.04;91787.53;5067527;28;20253;-69
2023/03/28 01:04:23;;;;;;;10.37;9.87;;;;;;;1.03;96.30;91801.53;5068076;28;20976;-71
2023/03/28 01:06:53;;;;;;;11.13;10.53;;;;;;;0.97;95.09;91795.56;5069888;28;20267;-69
2023/03/28 01:09:22;;;;;;;11.87;11.27;;;;;;;1.07;93.99;91821.38;5072120;28;20193;-69
2023/03/28 01:11:49;;;;;;;10.37;9.83;;;;;;;1.10;94.88;91825.25;5072078;28;20189;-70
2023/03/28 01:14:18;;;;;;;10.70;10.20;;;;;;;1.10;94.71;91820.13;5071590;28;20200;-70
2023/03/28 01:16:46;;;;;;;9.87;9.47;;;;;;;1.06;94.12;91830.09;5071514;28;20203;-69
2023/03/28 01:19:57;;;;;;;10.70;10.20;;;;;;;1.13;95.13;91828.13;5072263;28;20615;-70
2023/03/28 01:22:35;;;;;;;12.00;11.40;;;;;;;1.24;95.05;91824.66;5071494;28;20228;-69
2023/03/28 01:25:34;;;;;;;12.50;11.90;;;;;;;0.95;93.03;91850.78;5071929;28;20242;-69
2023/03/28 01:28:12;;;;;;;10.13;9.60;;;;;;;0.99;91.59;91847.50;5071636;28;20221;-68
2023/03/28 01:30:56;;;;;;;9.87;9.40;;;;;;;1.12;93.38;91848.94;5070892;28;20271;-69
2023/03/28 01:33:45;;;;;;;9.50;9.07;;;;;;;1.00;93.20;91850.81;5071261;28;20193;-69
2023/03/28 01:39:42;;;;;;;12.00;11.40;;;;;;;0.62;93.67;91843.97;5136157;27;20306;-69
2023/03/28 02:08:40;;;;;;;10.97;10.37;;;;;;;0.44;93.77;91857.06;5102602;27;20552;-69
2023/03/28 02:11:08;;;;;;;10.23;9.70;;;;;;;0.40;93.61;91868.81;5051901;28;20226;-69
2023/03/28 02:13:40;;;;;;;10.70;10.30;;;;;;;0.35;94.49;91848.22;5044201;28;20190;-70
2023/03/28 02:24:22;;;;;;;11.90;11.30;;;;;;;0.26;96.64;91829.09;5138192;27;20560;-70
2023/03/28 02:26:47;;;;;;;11.87;11.27;;;;;;;0.22;96.70;91828.00;5087187;28;20180;-69
2023/03/28 02:29:14;;;;;;;10.80;10.27;;;;;;;0.37;96.08;91820.53;5085802;28;20201;-69
2023/03/28 02:31:40;;;;;;;10.97;10.43;;;;;;;0.30;96.05;91814.75;5085877;28;20280;-69
2023/03/28 02:34:07;;;;;;;11.43;10.93;;;;;;;0.77;91.64;91833.88;5083971;28;20181;-69
2023/03/28 02:37:00;;;;;;;11.20;10.70;;;;;;;0.96;90.29;91854.91;5084616;28;20224;-69
2023/03/28 02:39:45;;;;;;;10.20;9.80;;;;;;;0.89;89.85;91862.78;5084639;28;20715;-70
2023/03/28 02:42:29;;;;;;;10.53;10.13;;;;;;;0.87;89.34;91857.09;5084177;28;20220;-69
2023/03/28 02:45:25;;;;;;;10.83;10.33;;;;;;;0.88;89.00;91856.09;5085286;28;20228;-70
2023/03/28 02:48:00;;;;;;;9.97;9.57;;;;;;;0.81;89.05;91841.88;5086406;28;20191;-69
2023/03/28 02:50:53;;;;;;;10.30;9.90;;;;;;;0.74;88.29;91818.16;5085001;28;20841;-68
2023/03/28 02:53:31;;;;;;;10.67;10.17;;;;;;;0.76;88.81;91824.63;5084720;28;20190;-70
2023/03/28 02:56:11;;;;;;;10.80;10.40;;;;;;;0.74;87.93;91831.78;5085316;28;20240;-68
2023/03/28 02:59:02;;;;;;;10.27;9.87;;;;;;;0.79;87.26;91849.84;5084526;28;20192;-68
2023/03/28 03:01:29;;;;;;;12.90;12.30;;;;;;;0.82;86.92;91851.13;5085085;28;20232;-67
2023/03/28 03:03:55;;;;;;;10.63;10.13;;;;;;;0.77;86.43;91857.00;5084205;28;20209;-67
2023/03/28 03:06:21;;;;;;;9.87;9.47;;;;;;;0.82;87.55;91844.22;5084045;28;20233;-67
2023/03/28 03:08:46;;;;;;;10.60;9.97;;;;;;;0.92;86.56;91848.69;5085909;28;20215;-67
2023/03/28 03:11:12;;;;;;;9.90;9.50;;;;;;;0.87;85.58;91840.94;5084877;28;20271;-68
2023/03/28 03:13:37;;;;;;;10.30;9.80;;;;;;;0.90;85.01;91845.59;5084908;28;20192;-67
2023/03/28 03:16:04;;;;;;;10.30;9.90;;;;;;;0.78;84.28;91850.81;5083269;28;20240;-67
2023/03/28 03:18:29;;;;;;;9.73;9.43;;;;;;;0.77;84.18;91848.50;5083599;28;20193;-68
2023/03/28 03:20:55;;;;;;;11.60;11.10;;;;;;;0.80;84.55;91866.00;5083521;28;20296;-68
2023/03/28 03:23:20;;;;;;;11.03;10.53;;;;;;;0.74;83.94;91846.41;5083410;28;20240;-66
2023/03/28 03:25:49;;;;;;;10.57;10.17;;;;;;;0.76;82.87;91849.53;5085605;28;20231;-66
2023/03/28 03:28:15;;;;;;;9.13;8.83;;;;;;;0.81;84.11;91850.34;5084972;28;20191;-67
2023/03/28 03:30:41;;;;;;;10.57;10.17;;;;;;;0.77;83.25;91874.97;5084513;28;20227;-66
2023/03/28 03:33:09;;;;;;;9.77;9.47;;;;;;;0.77;84.53;91869.84;5083428;28;20204;-67
2023/03/28 03:35:35;;;;;;;11.07;10.47;;;;;;;0.91;83.94;91888.22;5071426;28;20218;-67
2023/03/28 03:38:01;;;;;;;9.70;9.37;;;;;;;1.00;83.83;91886.81;5072084;28;20190;-68
2023/03/28 03:40:26;;;;;;;9.53;9.20;;;;;;;0.79;82.38;91905.56;5070280;28;20223;-68
2023/03/28 03:42:51;;;;;;;9.60;9.30;;;;;;;0.66;83.13;91877.63;5070821;28;20205;-70
2023/03/28 03:45:17;;;;;;;9.90;9.47;;;;;;;0.64;82.65;91883.00;5070812;28;20256;-69
2023/03/28 03:47:42;;;;;;;10.00;9.60;;;;;;;0.59;83.35;91859.81;5070130;28;20189;-71
2023/03/28 03:50:08;;;;;;;10.13;9.73;;;;;;;0.50;81.67;91902.31;5070547;28;20260;-68
2023/03/28 03:52:34;;;;;;;10.00;9.60;;;;;;;0.62;81.98;91897.88;5066379;28;20201;-68
2023/03/28 03:55:00;;;;;;;8.70;8.40;;;;;;;0.60;82.26;91902.47;5068434;28;20247;-69
2023/03/28 03:57:25;;;;;;;9.50;9.20;;;;;;;0.50;81.97;91902.31;5070149;28;20200;-69
2023/03/28 03:59:51;;;;;;;10.20;9.70;;;;;;;0.63;82.66;91916.63;5069503;28;20244;-70
2023/03/28 04:02:16;;;;;;;10.00;9.60;;;;;;;0.59;83.31;91929.16;5068974;28;20240;-70
2023/03/28 04:04:44;;;;;;;9.93;9.47;;;;;;;0.45;82.61;91945.88;5068699;28;20260;-69
2023/03/28 04:07:10;;;;;;;8.83;8.53;;;;;;;0.46;82.11;91934.63;5069370;28;20213;-69
2023/03/28 04:09:36;;;;;;;10.30;9.80;;;;;;;0.35;82.36;91914.94;5069035;28;20233;-71
2023/03/28 04:12:01;;;;;;;10.33;9.93;;;;;;;0.47;82.22;91949.00;5069499;28;20186;-74
2023/03/28 04:14:27;;;;;;;9.10;8.80;;;;;;;0.39;82.26;91941.69;5069540;28;20216;-75
2023/03/28 04:16:52;;;;;;;10.83;10.27;;;;;;;0.35;81.96;91945.75;5070168;28;20186;-71
2023/03/28 04:19:18;;;;;;;10.20;9.70;;;;;;;0.36;82.16;91936.25;5069522;28;20213;-70
2023/03/28 04:21:47;;;;;;;10.13;9.77;;;;;;;0.36;82.34;91960.13;5069887;28;20193;-70
2023/03/28 04:24:19;;;;;;;10.23;9.83;;;;;;;0.23;81.93;91962.22;5067305;28;20233;-71
2023/03/28 04:26:48;;;;;;;10.50;10.10;;;;;;;0.22;82.47;91940.16;5068840;28;20763;-71
2023/03/28 04:29:15;;;;;;;9.90;9.50;;;;;;;0.32;81.72;91966.75;5068029;28;20194;-73
2023/03/28 04:31:48;;;;;;;10.43;10.00;;;;;;;0.35;81.93;91958.56;5068107;28;20201;-73
2023/03/28 04:34:15;;;;;;;11.20;10.70;;;;;;;0.40;83.88;91956.09;5067572;28;20201;-73
2023/03/28 04:36:40;;;;;;;11.03;10.63;;;;;;;0.29;81.79;91974.91;5066926;28;20208;-74
2023/03/28 04:39:07;;;;;;;10.33;9.87;;;;;;;0.20;81.12;91972.94;5068989;28;20177;-73
2023/03/28 04:41:33;;;;;;;10.07;9.67;;;;;;;0.37;81.43;92007.91;5066853;28;20324;-74
2023/03/28 04:43:59;;;;;;;10.80;10.40;;;;;;;0.36;80.47;92026.84;5067553;28;20217;-74
2023/03/28 04:46:25;;;;;;;11.53;11.03;;;;;;;0.35;79.70;92020.19;5066760;28;20267;-75
2023/03/28 04:48:50;;;;;;;10.53;10.00;;;;;;;0.33;80.01;92035.03;5067372;28;20212;-74
2023/03/28 04:51:16;;;;;;;9.60;9.20;;;;;;;0.40;80.84;92055.41;5069974;28;20217;-74
2023/03/28 04:53:41;;;;;;;11.20;10.70;;;;;;;0.38;80.66;92054.88;5067781;28;20200;-74
2023/03/28 04:56:07;;;;;;;10.13;9.73;;;;;;;0.43;80.15;92050.59;5067941;28;20398;-74
2023/03/28 04:58:33;;;;;;;10.40;9.90;;;;;;;0.38;80.76;92065.13;5067454;28;20186;-74
2023/03/28 05:01:02;;;;;;;13.30;12.30;;;;;;;0.25;81.40;92048.22;5067757;28;20252;-74
2023/03/28 05:03:28;;;;;;;10.77;10.27;;;;;;;0.37;81.72;92055.88;5068483;28;20217;-75
2023/03/28 05:05:53;;;;;;;12.47;11.77;;;;;;;0.25;81.01;92055.91;5066468;28;20225;-74
2023/03/28 05:08:23;;;;;;;11.83;11.23;;;;;;;0.28;83.21;92052.91;5068608;28;20194;-74
2023/03/28 05:10:49;;;;;;;10.07;9.50;;;;;;;0.25;81.44;92047.47;5068155;28;20255;-74
2023/03/28 05:13:15;;;;;;;11.63;11.03;;;;;;;0.48;81.45;92068.66;5068351;28;20193;-81
2023/03/28 05:15:41;;;;;;;11.50;10.97;;;;;;;0.43;80.51;92071.16;5067409;28;20244;-82
2023/03/28 05:18:08;;;;;;;12.80;12.10;;;;;;;0.28;80.77;92065.72;5067180;28;20193;-83
2023/03/28 05:20:34;;;;;;;11.47;10.73;;;;;;;0.37;81.25;92072.06;5066684;28;20225;-75
2023/03/28 05:23:01;;;;;;;11.23;10.67;;;;;;;0.25;82.34;92052.59;5065896;28;20295;-73
2023/03/28 05:25:27;;;;;;;10.40;9.90;;;;;;;0.15;82.65;92058.31;5065411;28;20247;-73
2023/03/28 05:27:52;;;;;;;12.17;11.57;;;;;;;0.17;82.92;92055.53;5063519;28;20178;-73
2023/03/28 05:30:18;;;;;;;11.23;10.73;;;;;;;0.13;82.89;92055.19;5067025;28;20244;-74
2023/03/28 05:32:44;;;;;;;13.33;12.50;;;;;;;0.09;85.41;92061.81;5067574;28;20232;-74
2023/03/28 05:35:11;;;;;;;13.17;12.37;;;;;;;0.08;81.71;92072.31;5067226;28;20231;-74
2023/03/28 05:37:37;;;;;;;16.17;14.47;;;;;;;-0.10;82.59;92055.28;5069266;28;20182;-74
2023/03/28 05:40:07;;;;;;;12.90;11.93;;;;;;;0.00;82.95;92070.88;5067294;28;20232;-73
2023/03/28 05:42:34;;;;;;;13.63;12.73;;;;;;;0.01;82.62;92072.44;5066796;28;20236;-72
2023/03/28 05:45:00;;;;;;;13.80;13.00;;;;;;;0.16;83.31;92084.78;5058141;28;20233;-71
2023/03/28 05:47:25;;;;;;;13.80;13.00;;;;;;;0.25;83.34;92096.22;5053265;28;20193;-72
2023/03/28 05:49:51;;;;;;;15.67;14.47;;;;;;;0.39;85.42;92095.69;5053058;28;20403;-70
2023/03/28 05:52:16;;;;;;;17.80;15.73;;;;;;;0.27;83.88;92094.97;5068520;28;20231;-72
2023/03/28 05:54:41;;;;;;;12.73;12.03;;;;;;;0.32;82.68;92099.41;5067770;28;20252;-73
2023/03/28 05:57:07;;;;;;;13.20;12.50;;;;;;;0.19;81.75;92095.34;5067640;28;20207;-75
2023/03/28 05:59:32;;;;;;;13.20;12.20;;;;;;;0.21;81.59;92100.25;5067598;28;20189;-81
2023/03/28 06:01:58;;;;;;;12.93;11.93;;;;;;;0.17;84.19;92107.63;5069233;28;20192;-80
2023/03/28 06:04:24;;;;;;;12.63;11.93;;;;;;;0.05;86.09;92104.31;5068590;28;20185;-78
2023/03/28 06:06:51;;;;;;;14.43;13.60;;;;;;;-0.18;89.40;92101.81;5068285;28;20193;-77
2023/03/28 06:09:17;;;;;;;13.27;12.50;;;;;;;-0.15;90.99;92112.41;5068371;28;20225;-76
2023/03/28 06:11:43;;;;;;;14.57;13.27;;;;;;;-0.33;93.49;92101.50;5067386;28;20193;-79
2023/03/28 06:14:09;;;;;;;20.17;18.90;;;;;;;-0.28;94.05;92119.56;5067982;28;20189;-76
2023/03/28 06:16:36;;;;;;;12.17;11.37;;;;;;;-0.23;95.67;92124.78;5067538;28;20265;-76
2023/03/28 06:19:01;;;;;;;14.30;13.30;;;;;;;-0.50;95.08;92086.00;5067852;28;20205;-76
2023/03/28 06:21:27;;;;;;;15.00;13.90;;;;;;;-0.37;94.70;92123.44;5067148;28;20221;-77
2023/03/28 06:23:52;;;;;;;13.00;12.10;;;;;;;-0.40;93.96;92131.59;5067482;28;20239;-76
2023/03/28 06:26:18;;;;;;;13.87;12.97;;;;;;;-0.40;95.72;92149.53;5067203;28;20221;-77
2023/03/28 06:28:44;;;;;;;14.87;13.67;;;;;;;-0.65;97.99;92154.91;5068068;28;20177;-75
2023/03/28 06:31:10;;;;;;;16.20;15.07;;;;;;;-0.96;97.23;92101.41;5067714;28;20240;-75
2023/03/28 06:33:39;;;;;;;14.60;13.50;;;;;;;-0.61;95.12;92138.06;5067547;28;20178;-75
2023/03/28 06:36:06;;;;;;;13.53;12.50;;;;;;;-0.59;94.18;92135.31;5067573;28;20240;-75
2023/03/28 06:38:32;;;;;;;13.33;12.57;;;;;;;-0.35;94.16;92162.47;5068009;28;20189;-76
2023/03/28 06:40:58;;;;;;;13.13;12.23;;;;;;;-0.18;93.53;92165.91;5066977;28;20225;-75
2023/03/28 06:43:23;;;;;;;14.13;13.23;;;;;;;-0.46;93.32;92135.06;5067334;28;20248;-75
2023/03/28 06:47:18;;;;;;;13.70;12.80;;;;;;;-0.15;90.15;92144.94;5100390;27;20555;-77
2023/03/28 06:49:43;;;;;;;12.70;11.93;;;;;;;-0.14;88.54;92152.41;5093909;27;20294;-77
2023/03/28 06:52:08;;;;;;;13.23;12.30;;;;;;;0.09;88.20;92161.88;5063611;28;20185;-80
2023/03/28 06:54:34;;;;;;;14.33;13.53;;;;;;;-0.29;88.27;92128.25;5063910;28;20240;-77
2023/03/28 06:56:59;;;;;;;13.03;12.10;;;;;;;-0.24;89.43;92166.81;5062641;28;20971;-78
2023/03/28 06:59:25;;;;;;;13.40;12.57;;;;;;;-0.08;90.62;92172.03;5062442;28;20177;-77
2023/03/28 07:01:50;;;;;;;12.47;11.77;;;;;;;-0.25;90.85;92165.28;5063208;28;20289;-77
2023/03/28 07:04:15;;;;;;;12.77;12.07;;;;;;;-0.31;89.84;92176.41;5063200;28;20207;-76
2023/03/28 07:06:41;;;;;;;13.33;12.60;;;;;;;-0.12;88.98;92182.97;5063396;28;20239;-76
2023/03/28 07:09:07;;;;;;;12.80;12.00;;;;;;;-0.09;86.43;92195.34;5063366;28;20213;-75
2023/03/28 07:11:32;;;;;;;13.80;13.00;;;;;;;-0.06;84.12;92158.97;5062645;28;20289;-75
2023/03/28 07:13:57;;;;;;;12.70;11.93;;;;;;;0.40;81.07;92188.91;5061684;28;20189;-74
2023/03/28 07:16:23;;;;;;;13.00;12.20;;;;;;;0.49;79.81;92193.47;5063483;28;20224;-75
2023/03/28 07:18:48;;;;;;;13.53;12.63;;;;;;;0.36;78.07;92203.97;5062755;28;20196;-74
2023/03/28 07:21:16;;;;;;;13.00;11.90;;;;;;;0.32;76.24;92233.69;5062380;28;20276;-73
2023/03/28 07:23:43;;;;;;;12.47;11.47;;;;;;;0.68;76.14;92210.25;5063730;28;20200;-75
2023/03/28 07:26:10;;;;;;;11.40;10.90;;;;;;;0.83;75.60;92220.03;5062094;28;20229;-75
2023/03/28 07:28:36;;;;;;;12.40;11.70;;;;;;;0.61;77.48;92232.72;5064362;28;20216;-74
2023/03/28 07:31:03;;;;;;;13.67;12.90;;;;;;;0.72;75.00;92233.69;5063784;28;21072;-74
2023/03/28 07:33:33;;;;;;;12.40;11.67;;;;;;;0.52;74.32;92225.59;5063642;28;20193;-74
2023/03/28 07:35:59;;;;;;;14.37;13.57;;;;;;;0.62;73.14;92228.38;5040858;28;20227;-74
2023/03/28 07:38:25;;;;;;;12.27;11.57;;;;;;;0.61;73.96;92227.56;5035331;28;20649;-74
2023/03/28 07:40:50;;;;;;;12.07;11.47;;;;;;;0.37;73.59;92236.34;5040482;28;20246;-75
2023/03/28 07:43:15;;;;;;;11.80;11.03;;;;;;;0.61;74.83;92221.69;5035674;28;20225;-75
2023/03/28 07:45:41;;;;;;;11.70;11.10;;;;;;;0.72;75.72;92224.19;5035211;28;20238;-74
2023/03/28 07:48:06;;;;;;;12.73;11.57;;;;;;;0.83;74.71;92220.81;5034342;28;20194;-74
2023/03/28 07:50:32;;;;;;;12.60;11.80;;;;;;;0.41;74.15;92231.53;5036039;28;20250;-73
2023/03/28 07:52:59;;;;;;;11.80;11.20;;;;;;;0.54;74.23;92244.91;5035540;28;20194;-75
2023/03/28 07:55:26;;;;;;;11.73;11.10;;;;;;;0.59;75.63;92250.13;5034992;28;20248;-73
2023/03/28 07:57:53;;;;;;;12.10;11.50;;;;;;;0.66;76.32;92261.06;5026723;28;20215;-74
2023/03/28 08:00:21;;;;;;;11.70;11.10;;;;;;;0.58;73.54;92255.50;5020803;28;20227;-74
2023/03/28 08:02:47;;;;;;;13.83;13.03;;;;;;;0.73;72.47;92261.69;5023333;28;20202;-74
2023/03/28 08:05:12;;;;;;;16.67;15.60;;;;;;;0.45;73.68;92268.59;5019893;28;20239;-73
2023/03/28 08:07:40;;;;;;;13.30;12.37;;;;;;;0.46;76.46;92260.66;5022587;28;21336;-72
2023/03/28 08:10:07;;;;;;;12.63;11.83;;;;;;;0.35;77.02;92248.63;5021774;28;20294;-73
2023/03/28 08:12:33;;;;;;;13.53;12.73;;;;;;;-0.01;78.59;92223.22;5020520;28;20187;-75
2023/03/28 08:14:58;;;;;;;12.60;11.80;;;;;;;0.28;76.09;92268.50;5021139;28;20390;-75
2023/03/28 08:17:25;;;;;;;12.70;11.97;;;;;;;0.30;76.93;92263.91;5018948;28;20184;-75
2023/03/28 08:19:50;;;;;;;12.37;11.67;;;;;;;-0.20;73.81;92250.00;5021794;28;20250;-76
2023/03/28 08:22:16;;;;;;;11.50;10.90;;;;;;;-0.18;75.31;92250.56;5023087;28;20198;-74
2023/03/28 08:24:42;;;;;;;12.90;11.97;;;;;;;0.24;76.10;92293.06;5020417;28;20256;-76
2023/03/28 08:27:08;;;;;;;12.57;11.80;;;;;;;0.14;77.08;92292.81;5021880;28;20230;-75
2023/03/28 08:29:34;;;;;;;12.03;11.33;;;;;;;0.46;77.70;92326.63;5021887;28;20234;-75
2023/03/28 08:32:00;;;;;;;12.57;11.77;;;;;;;0.30;77.42;92274.19;5023106;28;20198;-76
2023/03/28 08:34:25;;;;;;;11.73;11.03;;;;;;;0.26;76.23;92316.72;5021313;28;20188;-73
2023/03/28 08:36:51;;;;;;;11.83;11.23;;;;;;;0.29;78.03;92321.41;5020602;28;20183;-73
2023/03/28 08:39:17;;;;;;;13.00;11.97;;;;;;;0.30;77.54;92306.75;5021311;28;20262;-71
2023/03/28 08:42:04;;;;;;;13.37;12.57;;;;;;;0.50;78.48;92313.13;5048280;28;20190;-73
2023/03/28 08:44:45;;;;;;;13.07;12.20;;;;;;;0.59;75.99;92318.69;5047531;28;20186;-74
2023/03/28 08:47:17;;;;;;;11.93;11.23;;;;;;;0.56;77.65;92322.47;5075117;28;20292;-74
2023/03/28 08:49:46;;;;;;;13.10;12.30;;;;;;;0.54;78.04;92308.31;5045756;28;20922;-71
2023/03/28 08:52:17;;;;;;;11.80;11.20;;;;;;;0.60;73.75;92307.41;5045602;28;20312;-73
2023/03/28 08:54:55;;;;;;;12.00;11.30;;;;;;;0.80;76.03;92342.00;5046819;28;20249;-72
2023/03/28 08:57:26;;;;;;;12.50;11.43;;;;;;;0.77;73.02;92321.91;5046475;28;20198;-70
2023/03/28 08:59:52;;;;;;;12.27;11.50;;;;;;;0.84;72.57;92314.84;5047859;28;20234;-70
2023/03/28 09:02:25;;;;;;;11.93;11.03;;;;;;;1.13;72.12;92323.38;5045995;28;20249;-70
2023/03/28 09:04:51;;;;;;;10.33;9.73;;;;;;;0.77;71.75;92310.84;5047234;28;20241;-70
2023/03/28 09:07:49;;;;;;;12.37;11.73;;;;;;;0.80;70.32;92328.38;5048293;28;20182;-70
2023/03/28 09:10:39;;;;;;;11.67;11.07;;;;;;;0.48;72.50;92333.13;5047057;28;20226;-70
2023/03/28 09:13:43;;;;;;;12.20;11.50;;;;;;;1.00;74.39;92339.84;5048944;28;20201;-70
2023/03/28 09:16:28;;;;;;;12.43;11.73;;;;;;;0.82;73.81;92365.69;5045083;28;20233;-69
2023/03/28 09:19:14;;;;;;;12.37;11.17;;;;;;;0.78;76.48;92350.97;5047236;28;20198;-70
2023/03/28 09:22:01;;;;;;;11.60;11.00;;;;;;;0.75;75.95;92351.38;5047333;28;20232;-69
2023/03/28 09:24:35;;;;;;;11.40;10.80;;;;;;;0.58;75.19;92346.16;5045271;28;20218;-70
2023/03/28 09:27:12;;;;;;;13.27;12.47;;;;;;;0.99;75.61;92363.19;5047567;28;20217;-70
2023/03/28 09:29:41;;;;;;;12.57;11.97;;;;;;;0.96;72.21;92350.81;5045298;28;20234;-70
2023/03/28 09:32:28;;;;;;;12.80;12.00;;;;;;;1.13;71.45;92354.22;5047701;28;20194;-72
2023/03/28 09:34:54;;;;;;;13.13;12.07;;;;;;;1.22;71.06;92342.56;5045773;28;20366;-73
2023/03/28 09:37:50;;;;;;;13.10;12.07;;;;;;;1.25;69.51;92336.97;5045322;28;20195;-71
2023/03/28 09:40:23;;;;;;;13.53;12.63;;;;;;;1.25;72.50;92345.47;5036554;28;20289;-71
2023/03/28 09:43:03;;;;;;;13.07;12.27;;;;;;;1.02;72.27;92358.38;5046730;28;20209;-71
2023/03/28 09:45:51;;;;;;;11.57;10.87;;;;;;;0.99;71.45;92353.72;5045700;28;20710;-71
2023/03/28 09:48:22;;;;;;;12.83;12.13;;;;;;;0.89;73.05;92363.75;5045498;28;20201;-72
2023/03/28 09:50:48;;;;;;;13.20;12.37;;;;;;;1.18;71.21;92362.03;5045922;28;20357;-70
2023/03/28 09:53:25;;;;;;;12.53;11.87;;;;;;;0.96;73.10;92354.16;5047572;28;20198;-71
2023/03/28 09:55:52;;;;;;;13.20;12.17;;;;;;;0.46;75.53;92309.44;5068949;28;20260;-71
2023/03/28 09:58:18;;;;;;;13.20;12.30;;;;;;;0.70;73.78;92371.84;5046614;28;20185;-71
2023/03/28 10:00:49;;;;;;;12.23;11.50;;;;;;;0.59;72.22;92370.81;5048060;28;20285;-73
2023/03/28 10:03:31;;;;;;;12.97;12.07;;;;;;;0.93;71.11;92374.38;5048114;28;20198;-73
2023/03/28 10:05:58;;;;;;;11.33;10.63;;;;;;;1.29;67.82;92374.84;5046354;28;20252;-74
2023/03/28 10:08:37;;;;;;;12.33;11.37;;;;;;;1.64;67.87;92383.22;5047400;28;20232;-75
2023/03/28 10:11:11;;;;;;;10.93;10.33;;;;;;;2.04;68.10;92372.06;5047375;28;20240;-75
2023/03/28 10:13:40;;;;;;;12.37;11.77;;;;;;;1.90;63.95;92365.66;5046253;28;20197;-75
2023/03/28 10:16:07;;;;;;;13.47;12.60;;;;;;;1.83;63.93;92349.56;5047228;28;20245;-74
2023/03/28 10:18:33;;;;;;;12.23;11.60;;;;;;;1.71;62.88;92359.16;5046669;28;20194;-74
2023/03/28 10:21:10;;;;;;;11.37;10.67;;;;;;;1.96;62.34;92359.59;5047174;28;20289;-73
2023/03/28 10:23:39;;;;;;;11.73;11.07;;;;;;;1.40;63.77;92355.25;5046116;28;20194;-75
2023/03/28 10:26:05;;;;;;;11.73;11.13;;;;;;;1.59;63.88;92364.34;5045238;28;20218;-74
2023/03/28 10:28:35;;;;;;;12.33;11.70;;;;;;;1.32;64.47;92356.38;5045885;28;20233;-74
2023/03/28 10:31:02;;;;;;;11.40;10.80;;;;;;;1.70;64.41;92360.94;5045542;28;20225;-70
2023/03/28 10:33:40;;;;;;;12.03;11.33;;;;;;;1.49;65.21;92364.94;5046443;28;20186;-69
2023/03/28 10:36:11;;;;;;;13.73;12.73;;;;;;;1.55;65.72;92358.09;5042335;28;20226;-70
2023/03/28 10:38:45;;;;;;;12.17;11.57;;;;;;;1.45;70.29;92363.84;5046946;28;20193;-71
2023/03/28 10:41:18;;;;;;;11.63;10.93;;;;;;;1.32;72.19;92342.78;5046415;28;20229;-70
2023/03/28 10:43:44;;;;;;;11.33;10.63;;;;;;;1.57;71.88;92363.81;5047059;28;20779;-70
2023/03/28 10:46:33;;;;;;;11.60;11.07;;;;;;;1.50;69.90;92351.06;5045740;28;20437;-70
2023/03/28 10:49:13;;;;;;;12.73;11.93;;;;;;;1.73;68.49;92368.19;5046791;28;20245;-70
2023/03/28 10:51:40;;;;;;;11.27;10.67;;;;;;;1.76;67.40;92369.53;5047218;28;20229;-71
2023/03/28 10:54:25;;;;;;;11.20;10.60;;;;;;;1.95;66.85;92383.75;5045783;28;20230;-70
2023/03/28 10:56:57;;;;;;;12.13;11.27;;;;;;;2.39;65.22;92381.13;5044372;28;20217;-77
2023/03/28 10:59:45;;;;;;;10.73;10.23;;;;;;;2.96;65.36;92381.69;5046740;28;20194;-75
2023/03/28 11:02:47;;;;;;;11.10;10.50;;;;;;;2.46;64.72;92368.09;5045817;28;20192;-75
2023/03/28 11:05:40;;;;;;;11.30;10.60;;;;;;;2.40;63.55;92381.91;5045419;28;20252;-74
2023/03/28 11:08:22;;;;;;;10.33;9.77;;;;;;;2.13;62.44;92360.38;5045247;28;20544;-74
2023/03/28 11:11:19;;;;;;;12.83;12.13;;;;;;;2.63;62.16;92361.13;5045242;28;20248;-73
2023/03/28 11:14:03;;;;;;;11.37;10.77;;;;;;;2.51;64.08;92368.16;5046133;28;20194;-74
2023/03/28 11:16:34;;;;;;;10.50;10.00;;;;;;;2.57;60.89;92378.31;5046122;28;20234;-74
2023/03/28 11:19:00;;;;;;;11.57;11.03;;;;;;;2.56;63.74;92375.97;5047309;28;20208;-80
2023/03/28 11:21:35;;;;;;;12.60;11.80;;;;;;;1.94;63.18;92352.09;5046673;28;20226;-78
2023/03/28 11:24:20;;;;;;;11.40;10.77;;;;;;;1.97;64.27;92366.28;5047081;28;20212;-76
2023/03/28 11:27:13;;;;;;;11.47;10.87;;;;;;;1.83;66.45;92380.44;5045021;28;20221;-75
2023/03/28 11:29:48;;;;;;;11.30;10.60;;;;;;;1.82;65.02;92369.41;5044766;28;20234;-76
2023/03/28 11:32:19;;;;;;;11.67;11.00;;;;;;;1.75;64.26;92360.25;5046360;28;20192;-73
2023/03/28 11:34:56;;;;;;;12.30;11.60;;;;;;;1.75;63.15;92362.81;5046977;28;20996;-76
2023/03/28 11:37:28;;;;;;;12.33;11.50;;;;;;;1.94;61.55;92361.59;5048320;28;20189;-75
2023/03/28 11:40:00;;;;;;;10.50;9.80;;;;;;;2.15;63.74;92368.66;5047413;28;20240;-75
2023/03/28 11:42:50;;;;;;;11.97;11.37;;;;;;;1.96;63.51;92380.19;5051069;28;20182;-77
2023/03/28 11:45:20;;;;;;;12.00;11.00;;;;;;;1.68;64.41;92361.16;5051262;28;20238;-73
2023/03/28 11:48:04;;;;;;;13.43;12.23;;;;;;;1.80;65.02;92352.63;5050010;28;20233;-75
2023/03/28 11:50:45;;;;;;;12.67;11.97;;;;;;;2.00;63.60;92364.03;5048354;28;20229;-78
2023/03/28 11:53:17;;;;;;;11.77;11.07;;;;;;;1.94;62.75;92397.63;5050884;28;20195;-78
2023/03/28 11:56:06;;;;;;;11.83;11.17;;;;;;;1.58;60.14;92383.38;5049898;28;20289;-73
2023/03/28 11:58:36;;;;;;;11.70;11.10;;;;;;;1.70;59.32;92381.50;5038323;28;20190;-75
2023/03/28 12:01:10;;;;;;;11.77;10.97;;;;;;;2.19;59.45;92380.03;5048010;28;20252;-74
2023/03/28 12:03:54;;;;;;;11.50;10.80;;;;;;;2.36;60.39;92376.47;5048573;28;20190;-76
2023/03/28 12:06:41;;;;;;;12.70;11.90;;;;;;;2.47;60.01;92367.09;5049018;28;20267;-76
2023/03/28 12:09:23;;;;;;;10.70;10.20;;;;;;;2.68;58.94;92374.88;5048810;28;21837;-76
2023/03/28 12:12:01;;;;;;;12.23;11.17;;;;;;;2.69;58.36;92381.56;5048987;28;20820;-78
2023/03/28 12:14:42;;;;;;;12.67;11.80;;;;;;;2.81;58.36;92366.81;5049349;28;20279;-75
2023/03/28 12:17:23;;;;;;;10.27;9.77;;;;;;;2.50;57.25;92369.19;5048262;28;20218;-75
2023/03/28 12:19:48;;;;;;;12.03;11.03;;;;;;;2.73;59.41;92366.41;5049592;28;20226;-75
2023/03/28 12:22:25;;;;;;;11.53;10.87;;;;;;;3.34;57.76;92368.75;5046220;28;20197;-74
2023/03/28 12:25:05;;;;;;;12.10;11.17;;;;;;;3.14;56.36;92384.00;5049332;28;20284;-74